createdAt,value
2017-01-20T00:00:36.278Z,-60
2017-01-20T00:01:36.235Z,-59
2017-01-20T00:02:36.304Z,-57
2017-01-20T00:03:36.221Z,-59
2017-01-20T00:04:36.188Z,-59
2017-01-20T00:05:36.465Z,-58
2017-01-20T00:06:36.275Z,-59
2017-01-20T00:07:36.245Z,-59
2017-01-20T00:08:36.284Z,-59
2017-01-20T00:09:36.217Z,-58
2017-01-20T00:10:36.321Z,-58
2017-01-20T00:11:36.296Z,-57
2017-01-20T00:12:36.213Z,-59
2017-01-20T00:13:36.193Z,-58
2017-01-20T00:14:36.621Z,-58
2017-01-20T00:15:36.304Z,-59
2017-01-20T00:16:36.243Z,-60
2017-01-20T00:17:36.199Z,-57
2017-01-20T00:18:36.245Z,-59
2017-01-20T00:19:36.205Z,-59
2017-01-20T00:20:36.215Z,-60
2017-01-20T00:21:36.237Z,-57
2017-01-20T00:22:36.232Z,-58
2017-01-20T00:23:36.291Z,-59
2017-01-20T00:24:36.256Z,-60
2017-01-20T00:25:36.387Z,-58
2017-01-20T00:26:36.307Z,-58
2017-01-20T00:27:36.283Z,-59
2017-01-20T00:28:36.254Z,-59
2017-01-20T00:29:36.359Z,-59
2017-01-20T00:30:36.373Z,-58
2017-01-20T00:31:36.219Z,-58
2017-01-20T00:32:36.243Z,-59
2017-01-20T00:33:36.221Z,-59
2017-01-20T00:34:36.215Z,-57
2017-01-20T00:35:36.174Z,-60
2017-01-20T00:36:36.236Z,-57
2017-01-20T00:37:36.371Z,-59
2017-01-20T00:38:36.450Z,-56
2017-01-20T00:39:36.340Z,-58
2017-01-20T00:40:36.224Z,-59
2017-01-20T00:41:36.370Z,-58
2017-01-20T00:42:36.317Z,-59
2017-01-20T00:43:36.297Z,-58
2017-01-20T00:44:36.218Z,-58
2017-01-20T00:45:36.193Z,-59
2017-01-20T00:46:36.409Z,-58
2017-01-20T00:47:36.196Z,-57
2017-01-20T00:48:36.261Z,-58
2017-01-20T00:49:36.315Z,-58
2017-01-20T00:50:36.198Z,-57
2017-01-20T00:51:36.204Z,-59
2017-01-20T00:52:36.300Z,-58
2017-01-20T00:53:36.205Z,-58
2017-01-20T00:54:36.228Z,-57
2017-01-20T00:55:36.456Z,-58
2017-01-20T00:56:36.210Z,-59
2017-01-20T00:57:36.204Z,-59
2017-01-20T00:58:36.282Z,-58
2017-01-20T00:59:36.336Z,-57
2017-01-20T01:00:36.239Z,-55
2017-01-20T01:01:36.540Z,-58
2017-01-20T01:02:36.293Z,-58
2017-01-20T01:03:36.250Z,-58
2017-01-20T01:04:36.277Z,-58
2017-01-20T01:05:36.230Z,-58
2017-01-20T01:06:36.212Z,-54
2017-01-20T01:07:36.325Z,-58
2017-01-20T01:08:36.228Z,-58
2017-01-20T01:09:36.349Z,-58
2017-01-20T01:10:36.226Z,-58
2017-01-20T01:11:36.637Z,-58
2017-01-20T01:12:36.370Z,-59
2017-01-20T01:13:36.251Z,-57
2017-01-20T01:14:36.267Z,-58
2017-01-20T01:15:36.259Z,-57
2017-01-20T01:16:36.294Z,-58
2017-01-20T01:17:36.471Z,-59
2017-01-20T01:18:36.323Z,-60
2017-01-20T01:19:36.295Z,-57
2017-01-20T01:20:36.352Z,-56
2017-01-20T01:21:36.269Z,-57
2017-01-20T01:22:36.284Z,-59
2017-01-20T01:23:36.307Z,-57
2017-01-20T01:24:36.430Z,-53
2017-01-20T01:25:36.604Z,-58
2017-01-20T01:26:36.565Z,-57
2017-01-20T01:27:36.313Z,-59
2017-01-20T01:28:36.303Z,-58
2017-01-20T01:29:36.394Z,-59
2017-01-20T01:30:36.247Z,-57
2017-01-20T01:31:36.629Z,-59
2017-01-20T01:32:36.303Z,-58
2017-01-20T01:33:36.251Z,-58
2017-01-20T01:34:36.258Z,-57
2017-01-20T01:35:36.250Z,-57
2017-01-20T01:36:36.270Z,-57
2017-01-20T01:37:36.240Z,-59
2017-01-20T01:38:36.255Z,-60
2017-01-20T01:39:36.247Z,-57
2017-01-20T01:40:36.326Z,-59
2017-01-20T01:41:36.230Z,-58
2017-01-20T01:42:36.243Z,-58
2017-01-20T01:43:36.388Z,-57
2017-01-20T01:44:36.288Z,-60
2017-01-20T01:45:36.320Z,-57
2017-01-20T01:46:36.228Z,-58
2017-01-20T01:47:36.308Z,-57
2017-01-20T01:48:36.423Z,-56
2017-01-20T01:49:36.316Z,-57
2017-01-20T01:50:36.348Z,-56
2017-01-20T01:51:36.387Z,-58
2017-01-20T01:52:36.432Z,-58
2017-01-20T01:53:36.258Z,-59
2017-01-20T01:54:36.261Z,-57
2017-01-20T01:55:36.710Z,-58
2017-01-20T01:56:36.279Z,-58
2017-01-20T01:57:36.533Z,-58
2017-01-20T01:58:36.321Z,-58
2017-01-20T01:59:36.410Z,-57
2017-01-20T02:00:36.351Z,-58
2017-01-20T02:01:36.265Z,-57
2017-01-20T02:02:36.301Z,-59
2017-01-20T02:03:36.314Z,-58
2017-01-20T02:04:36.373Z,-56
2017-01-20T02:05:36.316Z,-59
2017-01-20T02:06:36.441Z,-57
2017-01-20T02:07:36.262Z,-57
2017-01-20T02:08:36.385Z,-57
2017-01-20T02:09:36.292Z,-54
2017-01-20T02:10:36.323Z,-58
2017-01-20T02:11:36.389Z,-58
2017-01-20T02:12:36.339Z,-58
2017-01-20T02:13:36.288Z,-57
2017-01-20T02:14:36.377Z,-59
2017-01-20T02:15:36.328Z,-58
2017-01-20T02:16:36.260Z,-57
2017-01-20T02:17:36.599Z,-59
2017-01-20T02:18:36.257Z,-57
2017-01-20T02:19:36.416Z,-57
2017-01-20T02:20:36.266Z,-57
2017-01-20T02:21:36.339Z,-58
2017-01-20T02:22:36.683Z,-59
2017-01-20T02:23:36.405Z,-58
2017-01-20T02:24:36.292Z,-57
2017-01-20T02:25:36.429Z,-58
2017-01-20T02:26:36.372Z,-58
2017-01-20T02:27:36.282Z,-58
2017-01-20T02:28:36.449Z,-58
2017-01-20T02:29:36.428Z,-57
2017-01-20T02:30:36.495Z,-55
2017-01-20T02:31:36.286Z,-57
2017-01-20T02:32:36.273Z,-60
2017-01-20T02:33:36.337Z,-58
2017-01-20T02:34:36.327Z,-57
2017-01-20T02:35:36.361Z,-55
2017-01-20T02:36:36.399Z,-57
2017-01-20T02:37:36.291Z,-57
2017-01-20T02:38:36.544Z,-57
2017-01-20T02:39:36.304Z,-56
2017-01-20T02:40:36.422Z,-56
2017-01-20T02:41:36.361Z,-58
2017-01-20T02:42:36.455Z,-59
2017-01-20T02:43:36.299Z,-58
2017-01-20T02:44:36.446Z,-59
2017-01-20T02:45:36.391Z,-59
2017-01-20T02:46:36.429Z,-58
2017-01-20T02:47:36.304Z,-58
2017-01-20T02:48:36.434Z,-59
2017-01-20T02:49:36.288Z,-57
2017-01-20T02:50:36.420Z,-58
2017-01-20T02:51:36.293Z,-59
2017-01-20T02:52:36.456Z,-57
2017-01-20T02:53:36.378Z,-57
2017-01-20T02:54:36.453Z,-58
2017-01-20T02:55:36.420Z,-59
2017-01-20T02:56:36.322Z,-58
2017-01-20T02:57:36.342Z,-58
2017-01-20T02:58:36.773Z,-56
2017-01-20T02:59:36.427Z,-58
2017-01-20T03:00:36.574Z,-58
2017-01-20T03:01:36.410Z,-59
2017-01-20T03:02:36.518Z,-57
2017-01-20T03:03:36.547Z,-59
2017-01-20T03:04:36.299Z,-59
2017-01-20T03:05:36.326Z,-58
2017-01-20T03:06:36.467Z,-58
2017-01-20T03:07:36.365Z,-57
2017-01-20T03:08:36.379Z,-57
2017-01-20T03:09:36.581Z,-57
2017-01-20T03:10:36.339Z,-59
2017-01-20T03:11:36.324Z,-60
2017-01-20T03:12:36.324Z,-59
2017-01-20T03:13:36.328Z,-59
2017-01-20T03:14:36.325Z,-60
2017-01-20T03:15:36.470Z,-59
2017-01-20T03:16:36.375Z,-58
2017-01-20T03:17:36.429Z,-58
2017-01-20T03:18:36.333Z,-60
2017-01-20T03:19:36.375Z,-58
2017-01-20T03:20:36.394Z,-59
2017-01-20T03:21:36.671Z,-58
2017-01-20T03:22:36.340Z,-57
2017-01-20T03:23:36.382Z,-57
2017-01-20T03:24:37.107Z,-57
2017-01-20T03:25:36.479Z,-58
2017-01-20T03:26:36.342Z,-57
2017-01-20T03:27:36.444Z,-57
2017-01-20T03:28:36.570Z,-55
2017-01-20T03:29:36.542Z,-58
2017-01-20T03:30:36.455Z,-60
2017-01-20T03:31:36.374Z,-58
2017-01-20T03:32:36.366Z,-59
2017-01-20T03:33:36.375Z,-58
2017-01-20T03:34:36.341Z,-59
2017-01-20T03:35:36.335Z,-59
2017-01-20T03:36:36.335Z,-59
2017-01-20T03:37:36.375Z,-60
2017-01-20T03:38:36.348Z,-58
2017-01-20T03:39:36.364Z,-57
2017-01-20T03:40:36.467Z,-59
2017-01-20T03:41:36.386Z,-60
2017-01-20T03:42:36.492Z,-58
2017-01-20T03:43:36.314Z,-58
2017-01-20T03:44:36.367Z,-58
2017-01-20T03:45:36.356Z,-59
2017-01-20T03:46:36.517Z,-58
2017-01-20T03:47:36.325Z,-57
2017-01-20T03:48:36.601Z,-59
2017-01-20T03:49:36.370Z,-58
2017-01-20T03:50:36.527Z,-57
2017-01-20T03:51:36.326Z,-55
2017-01-20T03:52:36.374Z,-59
2017-01-20T03:53:36.483Z,-58
2017-01-20T03:54:36.367Z,-58
2017-01-20T03:55:36.378Z,-57
2017-01-20T03:56:36.329Z,-58
2017-01-20T03:57:36.481Z,-59
2017-01-20T03:58:36.308Z,-57
2017-01-20T03:59:36.387Z,-58
2017-01-20T04:00:36.442Z,-59
2017-01-20T04:01:36.301Z,-58
2017-01-20T04:02:36.616Z,-57
2017-01-20T04:03:36.354Z,-58
2017-01-20T04:04:36.368Z,-59
2017-01-20T04:05:36.396Z,-59
2017-01-20T04:06:36.397Z,-58
2017-01-20T04:07:36.342Z,-58
2017-01-20T04:08:36.336Z,-58
2017-01-20T04:09:36.334Z,-59
2017-01-20T04:10:36.320Z,-58
2017-01-20T04:11:36.345Z,-57
2017-01-20T04:12:36.337Z,-57
2017-01-20T04:13:36.334Z,-58
2017-01-20T04:14:36.348Z,-57
2017-01-20T04:15:36.493Z,-57
2017-01-20T04:16:36.455Z,-57
2017-01-20T04:17:36.346Z,-58
2017-01-20T04:18:36.445Z,-58
2017-01-20T04:19:36.347Z,-56
2017-01-20T04:20:36.335Z,-58
2017-01-20T04:21:36.338Z,-59
2017-01-20T04:22:36.379Z,-59
2017-01-20T04:23:36.400Z,-57
2017-01-20T04:24:36.469Z,-59
2017-01-20T04:25:36.420Z,-59
2017-01-20T04:26:36.338Z,-59
2017-01-20T04:27:36.497Z,-59
2017-01-20T04:28:36.345Z,-59
2017-01-20T04:29:36.344Z,-59
2017-01-20T04:30:36.335Z,-57
2017-01-20T04:31:36.356Z,-58
2017-01-20T04:32:36.423Z,-58
2017-01-20T04:33:36.341Z,-59
2017-01-20T04:34:36.350Z,-58
2017-01-20T04:35:36.368Z,-59
2017-01-20T04:36:36.368Z,-59
2017-01-20T04:37:36.500Z,-57
2017-01-20T04:38:36.377Z,-58
2017-01-20T04:39:36.557Z,-58
2017-01-20T04:40:36.421Z,-58
2017-01-20T04:41:36.342Z,-59
2017-01-20T04:42:36.691Z,-59
2017-01-20T04:43:36.499Z,-57
2017-01-20T04:44:36.392Z,-55
2017-01-20T04:45:36.352Z,-59
2017-01-20T04:46:36.469Z,-58
2017-01-20T04:47:36.514Z,-57
2017-01-20T04:48:36.459Z,-59
2017-01-20T04:49:36.377Z,-59
2017-01-20T04:50:36.416Z,-57
2017-01-20T04:51:36.445Z,-58
2017-01-20T04:52:36.466Z,-58
2017-01-20T04:53:36.330Z,-58
2017-01-20T04:54:37.002Z,-57
2017-01-20T04:55:36.394Z,-57
2017-01-20T04:56:36.450Z,-59
2017-01-20T04:57:36.359Z,-56
2017-01-20T04:58:36.412Z,-59
2017-01-20T04:59:36.465Z,-57
2017-01-20T05:00:36.364Z,-57
2017-01-20T05:01:36.394Z,-59
2017-01-20T05:02:36.367Z,-59
2017-01-20T05:03:36.358Z,-59
2017-01-20T05:04:36.394Z,-59
2017-01-20T05:05:36.578Z,-58
2017-01-20T05:06:36.572Z,-58
2017-01-20T05:07:36.493Z,-57
2017-01-20T05:08:36.387Z,-59
2017-01-20T05:09:36.394Z,-58
2017-01-20T05:10:36.472Z,-59
2017-01-20T05:11:36.392Z,-59
2017-01-20T05:12:36.383Z,-58
2017-01-20T05:13:36.479Z,-59
2017-01-20T05:14:36.553Z,-61
2017-01-20T05:15:36.429Z,-59
2017-01-20T05:16:36.938Z,-58
2017-01-20T05:17:36.445Z,-58
2017-01-20T05:18:36.396Z,-58
2017-01-20T05:19:36.349Z,-58
2017-01-20T05:20:36.375Z,-57
2017-01-20T05:21:36.430Z,-58
2017-01-20T05:22:36.380Z,-57
2017-01-20T05:23:36.387Z,-58
2017-01-20T05:24:36.510Z,-58
2017-01-20T05:25:36.399Z,-59
2017-01-20T05:26:36.361Z,-59
2017-01-20T05:27:36.382Z,-59
2017-01-20T05:28:36.536Z,-59
2017-01-20T05:29:36.368Z,-59
2017-01-20T05:30:36.518Z,-58
2017-01-20T05:31:36.365Z,-57
2017-01-20T05:32:36.461Z,-58
2017-01-20T05:33:36.497Z,-56
2017-01-20T05:34:36.362Z,-58
2017-01-20T05:35:36.369Z,-58
2017-01-20T05:36:36.432Z,-61
2017-01-20T05:37:36.466Z,-58
2017-01-20T05:38:36.444Z,-59
2017-01-20T05:39:36.448Z,-59
2017-01-20T05:40:36.426Z,-58
2017-01-20T05:41:36.380Z,-58
2017-01-20T05:42:36.367Z,-58
2017-01-20T05:43:36.789Z,-58
2017-01-20T05:44:36.364Z,-58
2017-01-20T05:45:36.382Z,-60
2017-01-20T05:46:36.411Z,-58
2017-01-20T05:47:36.370Z,-59
2017-01-20T05:48:36.369Z,-58
2017-01-20T05:49:36.375Z,-57
2017-01-20T05:50:36.415Z,-58
2017-01-20T05:51:36.503Z,-58
2017-01-20T05:52:36.449Z,-58
2017-01-20T05:53:36.478Z,-57
2017-01-20T05:54:36.382Z,-59
2017-01-20T05:55:36.572Z,-58
2017-01-20T05:56:36.459Z,-63
2017-01-20T05:57:36.499Z,-58
2017-01-20T05:58:36.425Z,-57
2017-01-20T05:59:36.411Z,-60
2017-01-20T06:00:36.386Z,-58
2017-01-20T06:01:36.422Z,-59
2017-01-20T06:02:36.398Z,-59
2017-01-20T06:03:36.411Z,-59
2017-01-20T06:04:36.581Z,-59
2017-01-20T06:05:36.422Z,-59
2017-01-20T06:06:36.419Z,-58
2017-01-20T06:07:36.477Z,-58
2017-01-20T06:08:36.424Z,-56
2017-01-20T06:09:36.422Z,-59
2017-01-20T06:10:36.515Z,-59
2017-01-20T06:11:36.388Z,-58
2017-01-20T06:12:36.437Z,-58
2017-01-20T06:13:36.429Z,-60
2017-01-20T06:14:36.498Z,-59
2017-01-20T06:15:36.462Z,-59
2017-01-20T06:16:36.411Z,-58
2017-01-20T06:17:36.430Z,-59
2017-01-20T06:18:36.428Z,-59
2017-01-20T06:19:36.458Z,-57
2017-01-20T06:20:36.479Z,-57
2017-01-20T06:21:36.471Z,-58
2017-01-20T06:22:36.515Z,-57
2017-01-20T06:23:36.387Z,-58
2017-01-20T06:24:36.628Z,-58
2017-01-20T06:25:36.665Z,-59
2017-01-20T06:26:36.424Z,-60
2017-01-20T06:27:36.511Z,-56
2017-01-20T06:28:36.758Z,-57
2017-01-20T06:29:36.422Z,-58
2017-01-20T06:30:36.683Z,-60
2017-01-20T06:31:36.437Z,-58
2017-01-20T06:32:36.486Z,-57
2017-01-20T06:33:36.405Z,-58
2017-01-20T06:34:36.549Z,-57
2017-01-20T06:35:36.543Z,-60
2017-01-20T06:36:36.471Z,-58
2017-01-20T06:37:36.765Z,-59
2017-01-20T06:38:36.525Z,-60
2017-01-20T06:39:36.615Z,-59
2017-01-20T06:40:36.485Z,-59
2017-01-20T06:41:36.643Z,-62
2017-01-20T06:42:36.425Z,-60
2017-01-20T06:43:36.560Z,-58
2017-01-20T06:44:36.426Z,-58
2017-01-20T06:45:36.515Z,-58
2017-01-20T06:46:36.437Z,-58
2017-01-20T06:47:36.443Z,-58
2017-01-20T06:48:36.575Z,-58
2017-01-20T06:49:36.409Z,-59
2017-01-20T06:50:36.419Z,-58
2017-01-20T06:51:37.211Z,-58
2017-01-20T06:52:36.444Z,-59
2017-01-20T06:53:36.467Z,-59
2017-01-20T06:54:36.453Z,-59
2017-01-20T06:55:36.450Z,-58
2017-01-20T06:56:36.442Z,-58
2017-01-20T06:57:36.437Z,-58
2017-01-20T06:58:36.459Z,-59
2017-01-20T06:59:36.461Z,-59
2017-01-20T07:00:36.434Z,-58
2017-01-20T07:01:36.466Z,-59
2017-01-20T07:02:36.554Z,-59
2017-01-20T07:03:36.467Z,-59
2017-01-20T07:04:36.543Z,-58
2017-01-20T07:05:36.783Z,-59
2017-01-20T07:06:36.519Z,-59
2017-01-20T07:07:36.635Z,-59
2017-01-20T07:08:36.508Z,-59
2017-01-20T07:09:36.526Z,-60
2017-01-20T07:10:36.521Z,-58
2017-01-20T07:11:36.844Z,-59
2017-01-20T07:12:36.511Z,-59
2017-01-20T07:13:36.511Z,-60
2017-01-20T07:14:36.495Z,-56
2017-01-20T07:15:36.588Z,-58
2017-01-20T07:16:36.518Z,-56
2017-01-20T07:17:36.499Z,-58
2017-01-20T07:18:36.549Z,-59
2017-01-20T07:19:36.722Z,-59
2017-01-20T07:20:36.498Z,-58
2017-01-20T07:21:36.510Z,-59
2017-01-20T07:22:36.492Z,-58
2017-01-20T07:23:36.514Z,-60
2017-01-20T07:24:36.642Z,-56
2017-01-20T07:25:36.564Z,-57
2017-01-20T07:26:36.436Z,-58
2017-01-20T07:27:36.624Z,-59
2017-01-20T07:28:36.570Z,-58
2017-01-20T07:29:36.455Z,-58
2017-01-20T07:30:36.707Z,-60
2017-01-20T07:31:36.448Z,-59
2017-01-20T07:32:36.460Z,-59
2017-01-20T07:33:36.462Z,-58
2017-01-20T07:34:36.534Z,-58
2017-01-20T07:35:36.562Z,-59
2017-01-20T07:36:36.482Z,-58
2017-01-20T07:37:36.451Z,-58
2017-01-20T07:38:36.503Z,-59
2017-01-20T07:39:36.636Z,-60
2017-01-20T07:40:36.554Z,-58
2017-01-20T07:41:36.490Z,-59
2017-01-20T07:42:36.471Z,-58
2017-01-20T07:43:36.521Z,-59
2017-01-20T07:44:36.477Z,-57
2017-01-20T07:45:36.461Z,-58
2017-01-20T07:46:36.595Z,-58
2017-01-20T07:51:53.768Z,-59
2017-01-20T07:52:03.790Z,-58
2017-01-20T07:53:03.955Z,-58
2017-01-20T07:54:03.868Z,-58
2017-01-20T07:55:03.767Z,-59
2017-01-20T07:56:03.871Z,-57
2017-01-20T07:57:03.809Z,-59
2017-01-20T07:58:04.518Z,-58
2017-01-20T07:59:03.792Z,-58
2017-01-20T08:00:03.904Z,-58
2017-01-20T08:01:03.891Z,-59
2017-01-20T08:02:03.770Z,-59
2017-01-20T08:03:03.833Z,-59
2017-01-20T08:04:03.856Z,-58
2017-01-20T08:05:03.837Z,-57
2017-01-20T08:06:04.234Z,-59
2017-01-20T08:07:04.480Z,-56
2017-01-20T08:08:03.810Z,-59
2017-01-20T08:09:03.817Z,-58
2017-01-20T08:10:04.043Z,-56
2017-01-20T08:11:03.905Z,-59
2017-01-20T08:12:03.889Z,-57
2017-01-20T08:13:03.807Z,-57
2017-01-20T08:14:03.924Z,-59
2017-01-20T08:15:03.791Z,-59
2017-01-20T08:16:03.919Z,-58
2017-01-20T08:17:03.805Z,-58
2017-01-20T08:18:04.000Z,-59
2017-01-20T08:19:03.810Z,-59
2017-01-20T08:20:04.011Z,-58
2017-01-20T08:21:03.879Z,-58
2017-01-20T08:22:03.809Z,-59
2017-01-20T08:23:04.073Z,-58
2017-01-20T08:24:03.799Z,-59
2017-01-20T08:25:03.819Z,-56
2017-01-20T08:26:03.792Z,-58
2017-01-20T08:27:03.802Z,-58
2017-01-20T08:28:03.907Z,-59
2017-01-20T08:29:03.966Z,-59
2017-01-20T08:30:03.838Z,-58
2017-01-20T08:31:03.770Z,-57
2017-01-20T08:32:03.944Z,-59
2017-01-20T08:33:03.795Z,-60
2017-01-20T08:34:03.899Z,-58
2017-01-20T08:35:03.933Z,-58
2017-01-20T08:36:03.827Z,-58
2017-01-20T08:37:03.894Z,-58
2017-01-20T08:38:04.208Z,-58
2017-01-20T08:39:04.354Z,-60
2017-01-20T08:40:03.799Z,-59
2017-01-20T08:41:03.888Z,-57
2017-01-20T08:42:03.793Z,-59
2017-01-20T08:43:03.816Z,-58
2017-01-20T08:44:03.794Z,-56
2017-01-20T08:45:03.777Z,-59
2017-01-20T08:46:03.858Z,-59
2017-01-20T08:47:03.844Z,-58
2017-01-20T08:48:03.914Z,-59
2017-01-20T08:49:03.791Z,-58
2017-01-20T08:50:03.921Z,-59
2017-01-20T08:51:03.906Z,-57
2017-01-20T08:52:04.017Z,-58
2017-01-20T08:53:03.775Z,-59
2017-01-20T08:54:03.941Z,-58
2017-01-20T08:55:03.824Z,-58
2017-01-20T08:56:03.838Z,-57
2017-01-20T08:57:03.893Z,-62
2017-01-20T08:58:04.531Z,-59
2017-01-20T08:59:03.864Z,-58
2017-01-20T09:00:03.928Z,-59
2017-01-20T09:01:03.848Z,-58
2017-01-20T09:02:03.941Z,-59
2017-01-20T09:03:03.895Z,-58
2017-01-20T09:04:04.063Z,-61
2017-01-20T09:05:04.013Z,-58
2017-01-20T09:06:03.945Z,-61
2017-01-20T09:07:03.839Z,-57
2017-01-20T09:08:03.859Z,-58
2017-01-20T09:09:03.984Z,-58
2017-01-20T09:10:03.904Z,-59
2017-01-20T09:11:03.827Z,-59
2017-01-20T09:12:03.837Z,-57
2017-01-20T09:13:03.839Z,-60
2017-01-20T09:14:03.955Z,-58
2017-01-20T09:15:03.891Z,-59
2017-01-20T09:16:04.013Z,-58
2017-01-20T09:17:03.976Z,-60
2017-01-20T09:18:06.054Z,-62
2017-01-20T09:19:04.315Z,-63
2017-01-20T09:20:03.890Z,-65
2017-01-20T09:21:03.843Z,-62
2017-01-20T09:22:03.980Z,-63
2017-01-20T09:23:04.048Z,-61
2017-01-20T09:24:03.954Z,-63
2017-01-20T09:25:03.901Z,-63
2017-01-20T09:26:03.848Z,-63
2017-01-20T09:27:04.034Z,-62
2017-01-20T09:28:03.846Z,-63
2017-01-20T09:29:03.892Z,-59
2017-01-20T09:30:03.858Z,-59
2017-01-20T09:31:04.520Z,-58
2017-01-20T09:32:03.832Z,-57
2017-01-20T09:33:03.823Z,-57
2017-01-20T09:34:03.877Z,-57
2017-01-20T09:35:03.810Z,-58
2017-01-20T09:36:03.813Z,-58
2017-01-20T09:37:03.812Z,-59
2017-01-20T09:38:03.874Z,-59
2017-01-20T09:39:03.818Z,-57
2017-01-20T09:40:03.821Z,-58
2017-01-20T09:41:03.865Z,-58
2017-01-20T09:42:03.833Z,-58
2017-01-20T09:43:03.866Z,-62
2017-01-20T09:44:03.822Z,-63
2017-01-20T09:45:03.901Z,-63
2017-01-20T09:46:03.866Z,-60
2017-01-20T09:47:03.865Z,-66
2017-01-20T09:48:03.854Z,-63
2017-01-20T09:49:15.475Z,-63
2017-01-20T09:50:15.456Z,-62
2017-01-20T09:51:03.816Z,-63
2017-01-20T09:52:03.904Z,-62
2017-01-20T09:53:03.845Z,-62
2017-01-20T09:54:03.816Z,-63
2017-01-20T09:55:09.884Z,-63
2017-01-20T09:56:06.130Z,-62
2017-01-20T09:57:03.832Z,-63
2017-01-20T09:58:03.839Z,-63
2017-01-20T09:59:03.818Z,-63
2017-01-20T10:00:03.837Z,-62
2017-01-20T10:01:03.855Z,-63
2017-01-20T10:02:05.938Z,-62
2017-01-20T10:03:05.651Z,-63
2017-01-20T10:04:03.842Z,-60
2017-01-20T10:05:03.842Z,-60
2017-01-20T10:06:03.856Z,-60
2017-01-20T10:07:04.200Z,-67
2017-01-20T10:08:03.876Z,-68
2017-01-20T10:09:03.923Z,-61
2017-01-20T10:10:03.873Z,-63
2017-01-20T10:11:03.884Z,-59
2017-01-20T10:12:03.853Z,-61
2017-01-20T10:13:03.855Z,-61
2017-01-20T10:14:03.898Z,-65
2017-01-20T10:15:03.861Z,-60
2017-01-20T10:16:03.853Z,-60
2017-01-20T10:17:03.836Z,-63
2017-01-20T10:18:03.907Z,-63
2017-01-20T10:19:03.886Z,-60
2017-01-20T10:20:03.873Z,-57
2017-01-20T10:21:03.842Z,-61
2017-01-20T10:22:03.828Z,-61
2017-01-20T10:23:03.844Z,-60
2017-01-20T10:24:03.860Z,-58
2017-01-20T10:25:03.847Z,-60
2017-01-20T10:26:03.898Z,-58
2017-01-20T10:27:03.848Z,-60
2017-01-20T10:28:03.844Z,-59
2017-01-20T10:29:03.840Z,-60
2017-01-20T10:30:03.831Z,-60
2017-01-20T10:31:03.879Z,-59
2017-01-20T10:32:03.888Z,-60
2017-01-20T10:33:03.887Z,-60
2017-01-20T10:34:03.862Z,-60
2017-01-20T10:35:03.866Z,-59
2017-01-20T10:36:03.858Z,-59
2017-01-20T10:37:03.855Z,-60
2017-01-20T10:38:04.307Z,-60
2017-01-20T10:39:03.862Z,-61
2017-01-20T10:40:03.887Z,-60
2017-01-20T10:41:03.841Z,-61
2017-01-20T10:42:03.855Z,-59
2017-01-20T10:43:03.937Z,-60
2017-01-20T10:44:03.882Z,-60
2017-01-20T10:45:03.828Z,-62
2017-01-20T10:46:03.881Z,-60
2017-01-20T10:47:03.869Z,-60
2017-01-20T10:48:03.877Z,-60
2017-01-20T10:49:03.971Z,-61
2017-01-20T10:50:03.875Z,-61
2017-01-20T10:51:03.857Z,-60
2017-01-20T10:52:03.860Z,-63
2017-01-20T10:53:03.893Z,-60
2017-01-20T10:54:03.895Z,-60
2017-01-20T10:55:03.900Z,-61
2017-01-20T10:56:03.863Z,-61
2017-01-20T10:57:03.866Z,-61
2017-01-20T10:58:03.867Z,-61
2017-01-20T10:59:03.849Z,-61
2017-01-20T11:00:03.864Z,-60
2017-01-20T11:01:03.886Z,-58
2017-01-20T11:02:03.874Z,-60
2017-01-20T11:03:03.903Z,-59
2017-01-20T11:04:03.904Z,-60
2017-01-20T11:05:03.898Z,-61
2017-01-20T11:06:03.922Z,-61
2017-01-20T11:07:03.917Z,-61
2017-01-20T11:08:03.872Z,-61
2017-01-20T11:09:03.877Z,-61
2017-01-20T11:10:03.899Z,-59
2017-01-20T11:11:03.938Z,-60
2017-01-20T11:12:03.880Z,-59
2017-01-20T11:13:03.891Z,-60
2017-01-20T11:14:03.937Z,-60
2017-01-20T11:15:03.891Z,-61
2017-01-20T11:16:03.895Z,-60
2017-01-20T11:17:03.899Z,-60
2017-01-20T11:18:03.929Z,-60
2017-01-20T11:19:03.904Z,-59
2017-01-20T11:20:03.880Z,-58
2017-01-20T11:21:03.900Z,-61
2017-01-20T11:22:03.921Z,-62
2017-01-20T11:23:03.881Z,-62
2017-01-20T11:24:03.892Z,-63
2017-01-20T11:25:03.953Z,-63
2017-01-20T11:26:03.886Z,-61
2017-01-20T11:27:03.900Z,-61
2017-01-20T11:28:04.320Z,-63
2017-01-20T11:29:03.896Z,-63
2017-01-20T11:30:04.516Z,-64
2017-01-20T11:31:03.894Z,-62
2017-01-20T11:32:03.896Z,-63
2017-01-20T11:33:03.895Z,-63
2017-01-20T11:34:03.928Z,-59
2017-01-20T11:35:03.915Z,-59
2017-01-20T11:36:03.927Z,-59
2017-01-20T11:37:03.932Z,-59
2017-01-20T11:38:03.896Z,-62
2017-01-20T11:39:03.952Z,-62
2017-01-20T11:40:25.949Z,-62
2017-01-20T11:41:07.153Z,-64
2017-01-20T11:42:10.436Z,-63
2017-01-20T11:43:03.957Z,-63
2017-01-20T11:44:03.941Z,-63
2017-01-20T11:45:04.685Z,-62
2017-01-20T11:46:07.001Z,-64
2017-01-20T11:47:03.931Z,-63
2017-01-20T11:48:03.890Z,-63
2017-01-20T11:49:03.913Z,-61
2017-01-20T11:50:03.934Z,-63
2017-01-20T11:51:03.911Z,-63
2017-01-20T11:52:03.931Z,-62
2017-01-20T11:53:03.999Z,-64
2017-01-20T11:54:03.894Z,-61
2017-01-20T11:55:03.895Z,-66
2017-01-20T11:56:03.915Z,-63
2017-01-20T11:57:03.938Z,-63
2017-01-20T11:58:03.914Z,-63
2017-01-20T11:59:04.170Z,-63
2017-01-20T12:00:04.215Z,-63
2017-01-20T12:01:03.925Z,-62
2017-01-20T12:02:03.953Z,-62
2017-01-20T12:03:03.933Z,-62
2017-01-20T12:04:04.124Z,-62
2017-01-20T12:05:03.901Z,-63
2017-01-20T12:06:03.910Z,-62
2017-01-20T12:07:03.903Z,-63
2017-01-20T12:08:03.924Z,-63
2017-01-20T12:09:03.978Z,-63
2017-01-20T12:10:03.897Z,-61
2017-01-20T12:11:03.943Z,-61
2017-01-20T12:12:03.921Z,-64
2017-01-20T12:13:04.019Z,-64
2017-01-20T12:14:03.912Z,-63
2017-01-20T12:15:03.927Z,-63
2017-01-20T12:16:03.940Z,-63
2017-01-20T12:17:04.132Z,-62
2017-01-20T12:18:04.112Z,-60
2017-01-20T12:19:03.967Z,-59
2017-01-20T12:20:04.019Z,-59
2017-01-20T12:21:04.113Z,-60
2017-01-20T12:22:04.013Z,-60
2017-01-20T12:23:04.245Z,-57
2017-01-20T12:24:04.238Z,-60
2017-01-20T12:25:04.108Z,-59
2017-01-20T12:26:03.929Z,-60
2017-01-20T12:27:04.009Z,-61
2017-01-20T12:28:13.755Z,-64
2017-01-20T12:29:03.983Z,-64
2017-01-20T12:30:04.024Z,-58
2017-01-20T12:31:04.224Z,-64
2017-01-20T12:32:04.162Z,-65
2017-01-20T12:33:04.258Z,-64
2017-01-20T12:34:04.732Z,-61
2017-01-20T12:35:04.065Z,-63
2017-01-20T12:36:04.226Z,-66
2017-01-20T12:37:04.121Z,-64
2017-01-20T12:38:04.352Z,-63
2017-01-20T12:39:04.218Z,-63
2017-01-20T12:40:04.582Z,-64
2017-01-20T12:41:04.239Z,-62
2017-01-20T12:42:03.952Z,-63
2017-01-20T12:43:04.142Z,-63
2017-01-20T12:44:03.974Z,-63
2017-01-20T12:45:03.950Z,-64
2017-01-20T12:46:04.336Z,-63
2017-01-20T12:47:06.789Z,-63
2017-01-20T12:48:04.051Z,-63
2017-01-20T12:49:04.053Z,-60
2017-01-20T12:50:03.955Z,-60
2017-01-20T12:51:04.082Z,-60
2017-01-20T12:52:03.997Z,-61
2017-01-20T12:53:03.942Z,-59
2017-01-20T12:54:03.963Z,-60
2017-01-20T12:55:03.982Z,-59
2017-01-20T12:56:03.992Z,-60
2017-01-20T12:57:03.991Z,-58
2017-01-20T12:58:04.067Z,-59
2017-01-20T12:59:04.193Z,-60
2017-01-20T13:00:04.036Z,-59
2017-01-20T13:01:04.028Z,-62
2017-01-20T13:02:04.018Z,-63
2017-01-20T13:03:04.194Z,-63
2017-01-20T13:04:04.684Z,-63
2017-01-20T13:05:03.970Z,-61
2017-01-20T13:06:03.977Z,-63
2017-01-20T13:07:04.070Z,-61
2017-01-20T13:08:04.964Z,-62
2017-01-20T13:09:04.179Z,-63
2017-01-20T13:10:03.997Z,-64
2017-01-20T13:11:04.054Z,-65
2017-01-20T13:12:03.988Z,-64
2017-01-20T13:13:03.962Z,-62
2017-01-20T13:14:04.214Z,-66
2017-01-20T13:15:04.011Z,-59
2017-01-20T13:16:04.018Z,-65
2017-01-20T13:17:04.011Z,-65
2017-01-20T13:18:04.232Z,-64
2017-01-20T13:19:04.992Z,-69
2017-01-20T13:20:04.192Z,-64
2017-01-20T13:21:04.060Z,-65
2017-01-20T13:22:03.978Z,-63
2017-01-20T13:23:03.972Z,-62
2017-01-20T13:24:03.989Z,-64
2017-01-20T13:25:04.211Z,-64
2017-01-20T13:26:04.116Z,-61
2017-01-20T13:27:04.002Z,-64
2017-01-20T13:28:04.043Z,-64
2017-01-20T13:29:04.044Z,-64
2017-01-20T13:30:04.043Z,-64
2017-01-20T13:31:04.041Z,-65
2017-01-20T13:32:03.997Z,-65
2017-01-20T13:33:04.076Z,-63
2017-01-20T13:34:04.191Z,-64
2017-01-20T13:35:04.131Z,-63
2017-01-20T13:36:04.024Z,-64
2017-01-20T13:37:03.989Z,-60
2017-01-20T13:38:04.098Z,-64
2017-01-20T13:39:04.021Z,-64
2017-01-20T13:40:03.994Z,-65
2017-01-20T13:41:04.084Z,-66
2017-01-20T13:42:04.107Z,-64
2017-01-20T13:43:04.034Z,-64
2017-01-20T13:44:04.124Z,-63
2017-01-20T13:45:04.064Z,-64
2017-01-20T13:46:04.074Z,-64
2017-01-20T13:47:04.173Z,-64
2017-01-20T13:48:04.019Z,-64
2017-01-20T13:49:04.018Z,-63
2017-01-20T13:50:04.124Z,-62